sensor_id;sensor_type;location;lat;lon;timestamp;pressure;altitude;pressure_sealevel;temperature;humidity
55592;BME280;41454;53.396;-1.510;2023-11-21T00:01:47;100201.62;;;7.44;100.00
55592;BME280;41454;53.396;-1.510;2023-11-21T00:04:15;100210.41;;;7.31;100.00
55592;BME280;41454;53.396;-1.510;2023-11-21T00:06:42;100216.93;;;7.19;100.00
55592;BME280;41454;53.396;-1.510;2023-11-21T00:09:10;100216.64;;;7.04;100.00
55592;BME280;41454;53.396;-1.510;2023-11-21T00:11:36;100221.96;;;7.59;100.00
55592;BME280;41454;53.396;-1.510;2023-11-21T00:14:04;100226.63;;;6.93;100.00
55592;BME280;41454;53.396;-1.510;2023-11-21T00:16:31;100229.38;;;7.35;100.00
55592;BME280;41454;53.396;-1.510;2023-11-21T00:18:59;100234.93;;;7.21;100.00
55592;BME280;41454;53.396;-1.510;2023-11-21T00:21:26;100233.27;;;6.94;100.00
55592;BME280;41454;53.396;-1.510;2023-11-21T00:23:53;100236.33;;;7.29;100.00
55592;BME280;41454;53.396;-1.510;2023-11-21T00:26:20;100247.51;;;6.69;100.00
55592;BME280;41454;53.396;-1.510;2023-11-21T00:28:47;100260.82;;;7.10;100.00
55592;BME280;41454;53.396;-1.510;2023-11-21T00:31:15;100266.89;;;6.69;100.00
55592;BME280;41454;53.396;-1.510;2023-11-21T00:33:42;100272.38;;;7.12;100.00
55592;BME280;41454;53.396;-1.510;2023-11-21T00:36:10;100274.56;;;6.35;100.00
55592;BME280;41454;53.396;-1.510;2023-11-21T00:38:37;100268.28;;;7.28;100.00
55592;BME280;41454;53.396;-1.510;2023-11-21T00:41:04;100271.98;;;6.79;100.00
55592;BME280;41454;53.396;-1.510;2023-11-21T00:43:31;100269.19;;;7.45;100.00
55592;BME280;41454;53.396;-1.510;2023-11-21T00:45:58;100284.01;;;7.09;100.00
55592;BME280;41454;53.396;-1.510;2023-11-21T00:48:26;100279.54;;;7.28;100.00
55592;BME280;41454;53.396;-1.510;2023-11-21T00:50:53;100277.04;;;7.34;100.00
55592;BME280;41454;53.396;-1.510;2023-11-21T00:53:21;100280.28;;;7.13;100.00
55592;BME280;41454;53.396;-1.510;2023-11-21T00:55:49;100287.58;;;7.50;100.00
55592;BME280;41454;53.396;-1.510;2023-11-21T00:58:16;100289.71;;;6.92;100.00
55592;BME280;41454;53.396;-1.510;2023-11-21T01:00:43;100284.18;;;7.44;100.00
55592;BME280;41454;53.396;-1.510;2023-11-21T01:03:11;100295.27;;;6.66;100.00
55592;BME280;41454;53.396;-1.510;2023-11-21T01:05:39;100302.74;;;6.80;100.00
55592;BME280;41454;53.396;-1.510;2023-11-21T01:08:06;100299.17;;;6.17;100.00
55592;BME280;41454;53.396;-1.510;2023-11-21T01:10:33;100314.54;;;6.45;100.00
55592;BME280;41454;53.396;-1.510;2023-11-21T01:13:02;100306.32;;;6.37;100.00
55592;BME280;41454;53.396;-1.510;2023-11-21T01:15:29;100315.56;;;6.62;100.00
55592;BME280;41454;53.396;-1.510;2023-11-21T01:17:56;100322.74;;;6.42;100.00
55592;BME280;41454;53.396;-1.510;2023-11-21T01:20:24;100322.20;;;6.67;100.00
55592;BME280;41454;53.396;-1.510;2023-11-21T01:22:51;100320.55;;;6.46;100.00
55592;BME280;41454;53.396;-1.510;2023-11-21T01:25:19;100331.93;;;6.44;100.00
55592;BME280;41454;53.396;-1.510;2023-11-21T01:27:46;100323.86;;;6.56;100.00
55592;BME280;41454;53.396;-1.510;2023-11-21T01:30:14;100327.81;;;6.27;100.00
55592;BME280;41454;53.396;-1.510;2023-11-21T01:32:41;100334.75;;;6.45;100.00
55592;BME280;41454;53.396;-1.510;2023-11-21T01:35:09;100337.16;;;5.96;100.00
55592;BME280;41454;53.396;-1.510;2023-11-21T01:37:36;100333.41;;;6.93;100.00
55592;BME280;41454;53.396;-1.510;2023-11-21T01:40:04;100337.30;;;6.55;100.00
55592;BME280;41454;53.396;-1.510;2023-11-21T01:42:32;100342.98;;;6.59;100.00
55592;BME280;41454;53.396;-1.510;2023-11-21T01:44:59;100360.13;;;6.59;100.00
55592;BME280;41454;53.396;-1.510;2023-11-21T01:47:27;100371.59;;;5.99;100.00
55592;BME280;41454;53.396;-1.510;2023-11-21T01:49:55;100373.66;;;6.85;100.00
55592;BME280;41454;53.396;-1.510;2023-11-21T01:52:22;100377.11;;;6.08;100.00
55592;BME280;41454;53.396;-1.510;2023-11-21T01:54:49;100376.20;;;6.39;100.00
55592;BME280;41454;53.396;-1.510;2023-11-21T01:57:18;100377.29;;;6.49;100.00
55592;BME280;41454;53.396;-1.510;2023-11-21T01:59:49;100393.34;;;6.47;100.00
55592;BME280;41454;53.396;-1.510;2023-11-21T02:02:16;100383.61;;;6.25;100.00
55592;BME280;41454;53.396;-1.510;2023-11-21T02:04:43;100383.64;;;6.41;100.00
55592;BME280;41454;53.396;-1.510;2023-11-21T02:07:10;100374.23;;;6.32;100.00
55592;BME280;41454;53.396;-1.510;2023-11-21T02:09:37;100386.15;;;6.68;100.00
55592;BME280;41454;53.396;-1.510;2023-11-21T02:12:05;100392.21;;;6.49;100.00
55592;BME280;41454;53.396;-1.510;2023-11-21T02:14:33;100391.94;;;6.42;100.00
55592;BME280;41454;53.396;-1.510;2023-11-21T02:17:01;100387.68;;;6.63;100.00
55592;BME280;41454;53.396;-1.510;2023-11-21T02:19:28;100389.01;;;6.97;100.00
55592;BME280;41454;53.396;-1.510;2023-11-21T02:21:57;100389.35;;;6.94;100.00
55592;BME280;41454;53.396;-1.510;2023-11-21T02:24:24;100400.61;;;6.58;100.00
55592;BME280;41454;53.396;-1.510;2023-11-21T02:26:52;100395.27;;;7.12;100.00
55592;BME280;41454;53.396;-1.510;2023-11-21T02:29:18;100400.03;;;6.87;100.00
55592;BME280;41454;53.396;-1.510;2023-11-21T02:31:46;100394.91;;;7.14;100.00
55592;BME280;41454;53.396;-1.510;2023-11-21T02:34:14;100397.34;;;6.61;100.00
55592;BME280;41454;53.396;-1.510;2023-11-21T02:36:41;100400.08;;;6.73;100.00
55592;BME280;41454;53.396;-1.510;2023-11-21T02:39:08;100400.26;;;5.94;100.00
55592;BME280;41454;53.396;-1.510;2023-11-21T02:41:35;100396.54;;;6.70;100.00
55592;BME280;41454;53.396;-1.510;2023-11-21T02:44:04;100393.53;;;6.57;100.00
55592;BME280;41454;53.396;-1.510;2023-11-21T02:46:31;100390.15;;;6.67;100.00
55592;BME280;41454;53.396;-1.510;2023-11-21T02:48:59;100393.41;;;6.77;100.00
55592;BME280;41454;53.396;-1.510;2023-11-21T02:51:26;100396.83;;;6.44;100.00
55592;BME280;41454;53.396;-1.510;2023-11-21T02:53:53;100399.45;;;7.26;100.00
55592;BME280;41454;53.396;-1.510;2023-11-21T02:56:19;100405.47;;;6.64;100.00
55592;BME280;41454;53.396;-1.510;2023-11-21T02:58:47;100412.69;;;7.24;100.00
55592;BME280;41454;53.396;-1.510;2023-11-21T03:01:14;100415.12;;;7.25;100.00
55592;BME280;41454;53.396;-1.510;2023-11-21T03:03:42;100420.33;;;7.11;100.00
55592;BME280;41454;53.396;-1.510;2023-11-21T03:06:10;100419.61;;;6.71;100.00
55592;BME280;41454;53.396;-1.510;2023-11-21T03:08:37;100421.12;;;7.55;100.00
55592;BME280;41454;53.396;-1.510;2023-11-21T03:11:04;100419.96;;;6.84;100.00
55592;BME280;41454;53.396;-1.510;2023-11-21T03:13:31;100419.03;;;6.33;100.00
55592;BME280;41454;53.396;-1.510;2023-11-21T03:15:59;100420.03;;;7.11;100.00
55592;BME280;41454;53.396;-1.510;2023-11-21T03:18:25;100423.12;;;6.40;100.00
55592;BME280;41454;53.396;-1.510;2023-11-21T03:20:53;100422.93;;;6.73;100.00
55592;BME280;41454;53.396;-1.510;2023-11-21T03:23:21;100435.40;;;6.64;100.00
55592;BME280;41454;53.396;-1.510;2023-11-21T03:25:47;100426.18;;;6.91;100.00
55592;BME280;41454;53.396;-1.510;2023-11-21T03:28:15;100421.03;;;6.72;100.00
55592;BME280;41454;53.396;-1.510;2023-11-21T03:30:43;100433.35;;;6.62;100.00
55592;BME280;41454;53.396;-1.510;2023-11-21T03:33:10;100425.89;;;5.94;100.00
55592;BME280;41454;53.396;-1.510;2023-11-21T03:35:38;100419.83;;;6.40;100.00
55592;BME280;41454;53.396;-1.510;2023-11-21T03:38:05;100426.27;;;5.94;100.00
55592;BME280;41454;53.396;-1.510;2023-11-21T03:40:32;100426.79;;;6.77;100.00
55592;BME280;41454;53.396;-1.510;2023-11-21T03:43:01;100437.84;;;6.72;100.00
55592;BME280;41454;53.396;-1.510;2023-11-21T03:45:28;100444.19;;;6.47;100.00
55592;BME280;41454;53.396;-1.510;2023-11-21T03:47:55;100444.64;;;6.55;100.00
55592;BME280;41454;53.396;-1.510;2023-11-21T03:50:23;100445.71;;;6.49;100.00
55592;BME280;41454;53.396;-1.510;2023-11-21T03:52:50;100455.65;;;6.93;100.00
55592;BME280;41454;53.396;-1.510;2023-11-21T03:55:18;100474.55;;;6.70;100.00
55592;BME280;41454;53.396;-1.510;2023-11-21T03:57:45;100462.34;;;6.64;100.00
55592;BME280;41454;53.396;-1.510;2023-11-21T04:00:13;100473.82;;;6.83;100.00
55592;BME280;41454;53.396;-1.510;2023-11-21T04:02:40;100472.10;;;6.83;100.00
55592;BME280;41454;53.396;-1.510;2023-11-21T04:05:08;100468.76;;;6.40;100.00
55592;BME280;41454;53.396;-1.510;2023-11-21T04:07:35;100472.39;;;7.11;100.00
55592;BME280;41454;53.396;-1.510;2023-11-21T04:10:03;100479.59;;;7.13;100.00
55592;BME280;41454;53.396;-1.510;2023-11-21T04:12:31;100492.27;;;6.68;100.00
55592;BME280;41454;53.396;-1.510;2023-11-21T04:14:58;100488.20;;;6.68;100.00
55592;BME280;41454;53.396;-1.510;2023-11-21T04:17:25;100494.60;;;6.45;100.00
55592;BME280;41454;53.396;-1.510;2023-11-21T04:19:52;100502.34;;;6.63;100.00
55592;BME280;41454;53.396;-1.510;2023-11-21T04:22:20;100499.16;;;6.44;100.00
55592;BME280;41454;53.396;-1.510;2023-11-21T04:24:47;100516.76;;;6.12;100.00
55592;BME280;41454;53.396;-1.510;2023-11-21T04:27:15;100510.80;;;5.67;100.00
55592;BME280;41454;53.396;-1.510;2023-11-21T04:29:42;100521.57;;;6.24;100.00
55592;BME280;41454;53.396;-1.510;2023-11-21T04:32:10;100513.80;;;6.01;100.00
55592;BME280;41454;53.396;-1.510;2023-11-21T04:34:37;100520.33;;;5.66;100.00
55592;BME280;41454;53.396;-1.510;2023-11-21T04:37:05;100523.07;;;5.64;100.00
55592;BME280;41454;53.396;-1.510;2023-11-21T04:39:32;100530.82;;;6.02;100.00
55592;BME280;41454;53.396;-1.510;2023-11-21T04:41:59;100537.15;;;6.14;100.00
55592;BME280;41454;53.396;-1.510;2023-11-21T04:44:27;100543.99;;;6.41;100.00
55592;BME280;41454;53.396;-1.510;2023-11-21T04:46:54;100555.69;;;6.09;100.00
55592;BME280;41454;53.396;-1.510;2023-11-21T04:49:22;100552.53;;;5.61;100.00
55592;BME280;41454;53.396;-1.510;2023-11-21T04:51:48;100551.81;;;5.61;100.00
55592;BME280;41454;53.396;-1.510;2023-11-21T04:54:15;100554.45;;;5.64;100.00
55592;BME280;41454;53.396;-1.510;2023-11-21T04:56:42;100560.84;;;6.44;100.00
55592;BME280;41454;53.396;-1.510;2023-11-21T04:59:09;100561.61;;;5.82;100.00
55592;BME280;41454;53.396;-1.510;2023-11-21T05:01:36;100565.58;;;5.86;100.00
55592;BME280;41454;53.396;-1.510;2023-11-21T05:04:03;100563.08;;;5.67;100.00
55592;BME280;41454;53.396;-1.510;2023-11-21T05:06:31;100568.85;;;6.01;100.00
55592;BME280;41454;53.396;-1.510;2023-11-21T05:08:58;100576.04;;;5.77;100.00
55592;BME280;41454;53.396;-1.510;2023-11-21T05:11:26;100575.08;;;6.00;100.00
55592;BME280;41454;53.396;-1.510;2023-11-21T05:13:53;100570.18;;;6.02;100.00
55592;BME280;41454;53.396;-1.510;2023-11-21T05:16:20;100574.13;;;6.10;100.00
55592;BME280;41454;53.396;-1.510;2023-11-21T05:18:48;100574.16;;;5.96;100.00
55592;BME280;41454;53.396;-1.510;2023-11-21T05:21:15;100585.23;;;5.62;100.00
55592;BME280;41454;53.396;-1.510;2023-11-21T05:23:43;100588.88;;;6.19;100.00
55592;BME280;41454;53.396;-1.510;2023-11-21T05:26:10;100592.17;;;5.33;100.00
55592;BME280;41454;53.396;-1.510;2023-11-21T05:28:37;100585.48;;;6.19;100.00
55592;BME280;41454;53.396;-1.510;2023-11-21T05:31:04;100597.72;;;5.96;100.00
55592;BME280;41454;53.396;-1.510;2023-11-21T05:33:31;100599.24;;;5.62;100.00
55592;BME280;41454;53.396;-1.510;2023-11-21T05:35:58;100600.43;;;6.34;100.00
55592;BME280;41454;53.396;-1.510;2023-11-21T05:38:25;100607.19;;;6.51;100.00
55592;BME280;41454;53.396;-1.510;2023-11-21T05:40:52;100611.47;;;6.60;100.00
55592;BME280;41454;53.396;-1.510;2023-11-21T05:43:20;100619.34;;;6.28;100.00
55592;BME280;41454;53.396;-1.510;2023-11-21T05:45:47;100623.61;;;6.68;100.00
55592;BME280;41454;53.396;-1.510;2023-11-21T05:48:15;100627.34;;;5.77;100.00
55592;BME280;41454;53.396;-1.510;2023-11-21T05:50:41;100637.24;;;6.08;100.00
55592;BME280;41454;53.396;-1.510;2023-11-21T05:53:09;100650.64;;;5.06;100.00
55592;BME280;41454;53.396;-1.510;2023-11-21T05:55:36;100657.92;;;5.96;100.00
55592;BME280;41454;53.396;-1.510;2023-11-21T05:58:03;100661.40;;;6.01;100.00
55592;BME280;41454;53.396;-1.510;2023-11-21T06:00:30;100657.54;;;6.19;100.00
55592;BME280;41454;53.396;-1.510;2023-11-21T06:02:57;100658.14;;;6.19;100.00
55592;BME280;41454;53.396;-1.510;2023-11-21T06:05:26;100674.64;;;6.33;100.00
55592;BME280;41454;53.396;-1.510;2023-11-21T06:07:54;100678.19;;;6.11;100.00
55592;BME280;41454;53.396;-1.510;2023-11-21T06:10:21;100692.28;;;6.15;100.00
55592;BME280;41454;53.396;-1.510;2023-11-21T06:12:49;100697.60;;;5.99;100.00
55592;BME280;41454;53.396;-1.510;2023-11-21T06:15:16;100701.86;;;5.43;100.00
55592;BME280;41454;53.396;-1.510;2023-11-21T06:17:44;100712.02;;;5.94;100.00
55592;BME280;41454;53.396;-1.510;2023-11-21T06:20:12;100716.37;;;5.66;100.00
55592;BME280;41454;53.396;-1.510;2023-11-21T06:22:40;100715.23;;;6.05;100.00
55592;BME280;41454;53.396;-1.510;2023-11-21T06:25:08;100724.82;;;5.56;100.00
55592;BME280;41454;53.396;-1.510;2023-11-21T06:27:38;100730.72;;;5.85;100.00
55592;BME280;41454;53.396;-1.510;2023-11-21T06:30:08;100739.78;;;5.63;100.00
55592;BME280;41454;53.396;-1.510;2023-11-21T06:32:35;100738.03;;;6.68;100.00
55592;BME280;41454;53.396;-1.510;2023-11-21T06:35:03;100745.09;;;5.62;100.00
55592;BME280;41454;53.396;-1.510;2023-11-21T06:37:31;100743.39;;;5.89;100.00
55592;BME280;41454;53.396;-1.510;2023-11-21T06:39:59;100750.39;;;5.89;100.00
55592;BME280;41454;53.396;-1.510;2023-11-21T06:42:27;100753.04;;;6.08;100.00
55592;BME280;41454;53.396;-1.510;2023-11-21T06:44:55;100751.93;;;6.30;100.00
55592;BME280;41454;53.396;-1.510;2023-11-21T06:47:22;100755.86;;;5.70;100.00
55592;BME280;41454;53.396;-1.510;2023-11-21T06:49:50;100771.13;;;6.12;100.00
55592;BME280;41454;53.396;-1.510;2023-11-21T06:52:17;100771.54;;;5.53;100.00
55592;BME280;41454;53.396;-1.510;2023-11-21T06:54:45;100784.78;;;6.00;100.00
55592;BME280;41454;53.396;-1.510;2023-11-21T06:57:12;100785.36;;;5.22;100.00
55592;BME280;41454;53.396;-1.510;2023-11-21T06:59:40;100792.68;;;6.01;100.00
55592;BME280;41454;53.396;-1.510;2023-11-21T07:02:07;100800.46;;;5.41;100.00
55592;BME280;41454;53.396;-1.510;2023-11-21T07:04:35;100805.70;;;5.53;100.00
55592;BME280;41454;53.396;-1.510;2023-11-21T07:07:03;100813.27;;;5.99;100.00
55592;BME280;41454;53.396;-1.510;2023-11-21T07:09:31;100819.49;;;6.04;100.00
55592;BME280;41454;53.396;-1.510;2023-11-21T07:11:57;100823.36;;;5.99;100.00
55592;BME280;41454;53.396;-1.510;2023-11-21T07:14:25;100830.10;;;6.02;100.00
55592;BME280;41454;53.396;-1.510;2023-11-21T07:16:52;100836.89;;;5.68;100.00
55592;BME280;41454;53.396;-1.510;2023-11-21T07:19:19;100840.18;;;5.65;100.00
55592;BME280;41454;53.396;-1.510;2023-11-21T07:21:46;100859.20;;;5.77;100.00
55592;BME280;41454;53.396;-1.510;2023-11-21T07:24:14;100866.59;;;5.42;100.00
55592;BME280;41454;53.396;-1.510;2023-11-21T07:26:41;100870.98;;;5.95;100.00
55592;BME280;41454;53.396;-1.510;2023-11-21T07:29:09;100873.56;;;5.66;100.00
55592;BME280;41454;53.396;-1.510;2023-11-21T07:31:36;100870.73;;;6.13;100.00
55592;BME280;41454;53.396;-1.510;2023-11-21T07:34:03;100888.19;;;6.51;100.00
55592;BME280;41454;53.396;-1.510;2023-11-21T07:36:30;100879.04;;;6.41;100.00
55592;BME280;41454;53.396;-1.510;2023-11-21T07:38:57;100875.05;;;5.99;100.00
55592;BME280;41454;53.396;-1.510;2023-11-21T07:41:25;100875.41;;;6.02;100.00
55592;BME280;41454;53.396;-1.510;2023-11-21T07:43:52;100879.89;;;6.14;100.00
55592;BME280;41454;53.396;-1.510;2023-11-21T07:46:19;100891.15;;;5.67;100.00
55592;BME280;41454;53.396;-1.510;2023-11-21T07:48:45;100901.41;;;6.06;100.00
55592;BME280;41454;53.396;-1.510;2023-11-21T07:51:13;100901.62;;;5.30;100.00
55592;BME280;41454;53.396;-1.510;2023-11-21T07:53:41;100908.01;;;5.63;100.00
55592;BME280;41454;53.396;-1.510;2023-11-21T07:56:09;100911.01;;;5.42;100.00
55592;BME280;41454;53.396;-1.510;2023-11-21T07:58:36;100927.22;;;5.82;100.00
55592;BME280;41454;53.396;-1.510;2023-11-21T08:01:04;100940.64;;;5.41;100.00
55592;BME280;41454;53.396;-1.510;2023-11-21T08:03:31;100949.04;;;5.54;100.00
55592;BME280;41454;53.396;-1.510;2023-11-21T08:05:58;100949.96;;;5.81;100.00
55592;BME280;41454;53.396;-1.510;2023-11-21T08:08:26;100953.33;;;6.23;100.00
55592;BME280;41454;53.396;-1.510;2023-11-21T08:10:53;100955.94;;;5.93;100.00
55592;BME280;41454;53.396;-1.510;2023-11-21T08:13:21;100952.52;;;5.47;100.00
55592;BME280;41454;53.396;-1.510;2023-11-21T08:15:49;100955.86;;;5.51;100.00
55592;BME280;41454;53.396;-1.510;2023-11-21T08:18:16;100959.07;;;5.49;100.00
55592;BME280;41454;53.396;-1.510;2023-11-21T08:20:44;100966.83;;;5.97;100.00
55592;BME280;41454;53.396;-1.510;2023-11-21T08:23:11;100970.48;;;5.81;100.00
55592;BME280;41454;53.396;-1.510;2023-11-21T08:25:39;100970.72;;;5.75;100.00
55592;BME280;41454;53.396;-1.510;2023-11-21T08:28:06;100980.17;;;5.28;100.00
55592;BME280;41454;53.396;-1.510;2023-11-21T08:30:33;100978.75;;;5.90;100.00
55592;BME280;41454;53.396;-1.510;2023-11-21T08:33:01;100974.04;;;5.76;100.00
55592;BME280;41454;53.396;-1.510;2023-11-21T08:35:28;100991.30;;;5.83;100.00
55592;BME280;41454;53.396;-1.510;2023-11-21T08:37:55;100992.79;;;5.94;100.00
55592;BME280;41454;53.396;-1.510;2023-11-21T08:40:23;100992.28;;;5.69;100.00
55592;BME280;41454;53.396;-1.510;2023-11-21T08:42:49;100997.91;;;5.88;100.00
55592;BME280;41454;53.396;-1.510;2023-11-21T08:45:17;101000.09;;;5.75;100.00
55592;BME280;41454;53.396;-1.510;2023-11-21T08:47:44;100995.15;;;6.04;100.00
55592;BME280;41454;53.396;-1.510;2023-11-21T08:50:12;100999.30;;;5.38;100.00
55592;BME280;41454;53.396;-1.510;2023-11-21T08:52:39;101013.01;;;5.83;100.00
55592;BME280;41454;53.396;-1.510;2023-11-21T08:55:07;101022.21;;;6.01;100.00
55592;BME280;41454;53.396;-1.510;2023-11-21T08:57:34;101028.25;;;6.07;100.00
55592;BME280;41454;53.396;-1.510;2023-11-21T09:00:03;101029.93;;;6.16;100.00
55592;BME280;41454;53.396;-1.510;2023-11-21T09:02:31;101034.01;;;5.79;100.00
55592;BME280;41454;53.396;-1.510;2023-11-21T09:04:59;101027.60;;;5.86;100.00
55592;BME280;41454;53.396;-1.510;2023-11-21T09:07:26;101036.54;;;5.64;100.00
55592;BME280;41454;53.396;-1.510;2023-11-21T09:09:54;101037.22;;;6.04;100.00
55592;BME280;41454;53.396;-1.510;2023-11-21T09:12:21;101035.21;;;5.37;100.00
55592;BME280;41454;53.396;-1.510;2023-11-21T09:14:49;101031.80;;;5.93;100.00
55592;BME280;41454;53.396;-1.510;2023-11-21T09:17:15;101036.01;;;5.70;100.00
55592;BME280;41454;53.396;-1.510;2023-11-21T09:19:43;101041.10;;;6.02;100.00
55592;BME280;41454;53.396;-1.510;2023-11-21T09:22:11;101038.10;;;5.45;100.00
55592;BME280;41454;53.396;-1.510;2023-11-21T09:24:38;101049.57;;;5.86;100.00
55592;BME280;41454;53.396;-1.510;2023-11-21T09:27:05;101046.04;;;5.46;100.00
55592;BME280;41454;53.396;-1.510;2023-11-21T09:29:32;101048.12;;;6.17;100.00
55592;BME280;41454;53.396;-1.510;2023-11-21T09:32:00;101053.03;;;6.64;100.00
55592;BME280;41454;53.396;-1.510;2023-11-21T09:34:27;101063.41;;;6.78;100.00
55592;BME280;41454;53.396;-1.510;2023-11-21T09:36:55;101074.82;;;6.42;100.00
55592;BME280;41454;53.396;-1.510;2023-11-21T09:39:22;101080.56;;;6.75;100.00
55592;BME280;41454;53.396;-1.510;2023-11-21T09:41:51;101085.50;;;6.86;100.00
55592;BME280;41454;53.396;-1.510;2023-11-21T09:44:22;101086.75;;;6.86;100.00
55592;BME280;41454;53.396;-1.510;2023-11-21T09:46:54;101090.01;;;6.73;100.00
55592;BME280;41454;53.396;-1.510;2023-11-21T09:49:24;101087.69;;;6.71;100.00
55592;BME280;41454;53.396;-1.510;2023-11-21T09:51:55;101087.68;;;6.91;100.00
55592;BME280;41454;53.396;-1.510;2023-11-21T09:54:22;101096.30;;;6.61;100.00
55592;BME280;41454;53.396;-1.510;2023-11-21T09:56:50;101095.38;;;7.14;100.00
55592;BME280;41454;53.396;-1.510;2023-11-21T09:59:17;101101.15;;;6.38;100.00
55592;BME280;41454;53.396;-1.510;2023-11-21T10:01:45;101112.66;;;6.60;100.00
55592;BME280;41454;53.396;-1.510;2023-11-21T10:04:13;101114.93;;;5.74;100.00
55592;BME280;41454;53.396;-1.510;2023-11-21T10:06:41;101121.82;;;6.35;100.00
55592;BME280;41454;53.396;-1.510;2023-11-21T10:09:10;101127.44;;;5.89;100.00
55592;BME280;41454;53.396;-1.510;2023-11-21T10:11:39;101133.73;;;6.59;100.00
55592;BME280;41454;53.396;-1.510;2023-11-21T10:14:09;101124.81;;;5.71;100.00
55592;BME280;41454;53.396;-1.510;2023-11-21T10:16:37;101122.47;;;6.27;100.00
55592;BME280;41454;53.396;-1.510;2023-11-21T10:19:05;101118.79;;;6.02;100.00
55592;BME280;41454;53.396;-1.510;2023-11-21T10:21:33;101122.35;;;6.47;100.00
55592;BME280;41454;53.396;-1.510;2023-11-21T10:24:01;101126.34;;;6.75;100.00
55592;BME280;41454;53.396;-1.510;2023-11-21T10:26:28;101139.01;;;6.58;100.00
55592;BME280;41454;53.396;-1.510;2023-11-21T10:28:56;101143.56;;;6.56;100.00
55592;BME280;41454;53.396;-1.510;2023-11-21T10:31:23;101145.72;;;6.72;100.00
55592;BME280;41454;53.396;-1.510;2023-11-21T10:33:50;101148.24;;;6.46;100.00
55592;BME280;41454;53.396;-1.510;2023-11-21T10:36:25;101153.99;;;6.34;100.00
55592;BME280;41454;53.396;-1.510;2023-11-21T10:38:53;101161.91;;;7.13;100.00
55592;BME280;41454;53.396;-1.510;2023-11-21T10:41:20;101163.25;;;6.33;100.00
55592;BME280;41454;53.396;-1.510;2023-11-21T10:43:48;101171.23;;;6.74;100.00
55592;BME280;41454;53.396;-1.510;2023-11-21T10:46:15;101173.37;;;6.01;100.00
55592;BME280;41454;53.396;-1.510;2023-11-21T10:48:43;101167.83;;;6.29;100.00
55592;BME280;41454;53.396;-1.510;2023-11-21T10:51:12;101169.00;;;6.23;100.00
55592;BME280;41454;53.396;-1.510;2023-11-21T10:53:40;101179.23;;;6.77;100.00
55592;BME280;41454;53.396;-1.510;2023-11-21T10:56:09;101184.90;;;5.97;100.00
55592;BME280;41454;53.396;-1.510;2023-11-21T10:58:39;101184.17;;;6.30;100.00
55592;BME280;41454;53.396;-1.510;2023-11-21T11:01:07;101186.59;;;5.99;100.00
55592;BME280;41454;53.396;-1.510;2023-11-21T11:03:35;101190.43;;;7.01;100.00
55592;BME280;41454;53.396;-1.510;2023-11-21T11:06:04;101187.44;;;6.42;100.00
55592;BME280;41454;53.396;-1.510;2023-11-21T11:08:32;101190.33;;;6.45;100.00
55592;BME280;41454;53.396;-1.510;2023-11-21T11:10:59;101194.67;;;6.68;100.00
55592;BME280;41454;53.396;-1.510;2023-11-21T11:13:27;101198.82;;;6.69;100.00
55592;BME280;41454;53.396;-1.510;2023-11-21T11:15:58;101198.48;;;6.55;100.00
55592;BME280;41454;53.396;-1.510;2023-11-21T11:18:25;101201.89;;;6.50;100.00
55592;BME280;41454;53.396;-1.510;2023-11-21T11:20:53;101210.86;;;6.98;100.00
55592;BME280;41454;53.396;-1.510;2023-11-21T11:23:33;101210.20;;;7.31;100.00
55592;BME280;41454;53.396;-1.510;2023-11-21T11:26:16;101213.97;;;6.70;100.00
55592;BME280;41454;53.396;-1.510;2023-11-21T11:28:54;101212.12;;;7.62;100.00
55592;BME280;41454;53.396;-1.510;2023-11-21T11:31:33;101208.76;;;8.33;100.00
55592;BME280;41454;53.396;-1.510;2023-11-21T11:34:11;101207.22;;;8.01;100.00
55592;BME280;41454;53.396;-1.510;2023-11-21T11:36:47;101207.57;;;8.25;100.00
55592;BME280;41454;53.396;-1.510;2023-11-21T11:39:35;101210.95;;;7.21;100.00
55592;BME280;41454;53.396;-1.510;2023-11-21T11:42:08;101223.99;;;6.93;100.00
55592;BME280;41454;53.396;-1.510;2023-11-21T11:44:52;101223.72;;;7.18;100.00
55592;BME280;41454;53.396;-1.510;2023-11-21T11:47:22;101226.79;;;6.47;100.00
55592;BME280;41454;53.396;-1.510;2023-11-21T11:50:00;101224.00;;;6.56;100.00
55592;BME280;41454;53.396;-1.510;2023-11-21T11:52:37;101214.12;;;6.84;100.00
55592;BME280;41454;53.396;-1.510;2023-11-21T11:55:06;101218.41;;;6.42;100.00
55592;BME280;41454;53.396;-1.510;2023-11-21T11:57:34;101224.58;;;8.09;100.00
55592;BME280;41454;53.396;-1.510;2023-11-21T12:00:08;101230.75;;;7.78;100.00
55592;BME280;41454;53.396;-1.510;2023-11-21T12:02:36;101239.78;;;7.33;100.00
55592;BME280;41454;53.396;-1.510;2023-11-21T12:05:08;101229.93;;;7.01;100.00
55592;BME280;41454;53.396;-1.510;2023-11-21T12:07:43;101226.14;;;7.50;100.00
55592;BME280;41454;53.396;-1.510;2023-11-21T12:10:12;101222.36;;;6.86;100.00
55592;BME280;41454;53.396;-1.510;2023-11-21T12:12:42;101228.12;;;8.18;100.00
55592;BME280;41454;53.396;-1.510;2023-11-21T12:15:10;101233.14;;;7.17;100.00
55592;BME280;41454;53.396;-1.510;2023-11-21T12:17:37;101232.14;;;8.00;100.00
55592;BME280;41454;53.396;-1.510;2023-11-21T12:20:06;101231.46;;;7.58;100.00
55592;BME280;41454;53.396;-1.510;2023-11-21T12:22:33;101229.84;;;8.33;100.00
55592;BME280;41454;53.396;-1.510;2023-11-21T12:25:01;101233.83;;;7.60;100.00
55592;BME280;41454;53.396;-1.510;2023-11-21T12:27:28;101233.12;;;8.36;100.00
55592;BME280;41454;53.396;-1.510;2023-11-21T12:29:56;101228.00;;;8.77;100.00
55592;BME280;41454;53.396;-1.510;2023-11-21T12:32:23;101229.37;;;8.31;100.00
55592;BME280;41454;53.396;-1.510;2023-11-21T12:34:49;101228.15;;;8.21;100.00
55592;BME280;41454;53.396;-1.510;2023-11-21T12:37:17;101223.64;;;7.67;100.00
55592;BME280;41454;53.396;-1.510;2023-11-21T12:39:44;101231.51;;;8.07;100.00
55592;BME280;41454;53.396;-1.510;2023-11-21T12:42:12;101235.89;;;7.29;100.00
55592;BME280;41454;53.396;-1.510;2023-11-21T12:44:39;101243.76;;;8.24;100.00